Rochester, Pennsylvania
Current Conditions -  °F | °C
As of 10:47 AM on Thursday 23 Oct 2014 (Local Time) from KBVI Reporting Station
Scattered Clouds Scattered Clouds  
Wind Chill: 52°   Ceiling: Unl
Heat Index: 52°   Visibility: 10mi
Dew Point: 43°   Wind: 8mph
Humidity: 71%   Direction: 320°NW
Pressure: 30.15"   Gusts: NA
Location:  40.7°N, 80.29°W
Report Text: KBVI 231447Z 32007KT 10SM SCT021 11/06 A3015
Loading
Personal Weather Stations






























Interactive Weather Map
Tropical Storm Tracking
New forecast layout! Learn more

10-Day Weather Forecast

Advertisements
Track Severe Weather on mobile